createdAt,value
2017-09-04T00:00:33.657Z,0
2017-09-04T00:01:14.217Z,0
2017-09-04T00:01:54.797Z,0
2017-09-04T00:02:35.375Z,0
2017-09-04T00:03:15.938Z,0
2017-09-04T00:03:56.516Z,0
2017-09-04T00:04:37.100Z,0
2017-09-04T00:05:17.675Z,0
2017-09-04T00:05:58.258Z,0
2017-09-04T00:06:38.832Z,0
2017-09-04T00:07:19.408Z,0
2017-09-04T00:07:59.988Z,0
2017-09-04T00:08:40.559Z,0
2017-09-04T00:09:21.134Z,0
2017-09-04T00:10:01.707Z,0
2017-09-04T00:10:42.282Z,0
2017-09-04T00:11:22.863Z,0
2017-09-04T00:12:03.447Z,0
2017-09-04T00:12:44.026Z,0
2017-09-04T00:13:24.605Z,0
2017-09-04T00:14:05.174Z,0
2017-09-04T00:14:45.755Z,0
2017-09-04T00:15:26.330Z,0
2017-09-04T00:16:06.912Z,0
2017-09-04T00:16:47.485Z,0
2017-09-04T00:17:28.062Z,0
2017-09-04T00:18:08.642Z,0
2017-09-04T00:18:49.217Z,0
2017-09-04T00:19:29.788Z,0
2017-09-04T00:20:10.358Z,0
2017-09-04T00:20:50.936Z,0
2017-09-04T00:21:31.515Z,0
2017-09-04T00:22:12.094Z,0
2017-09-04T00:22:52.668Z,0
2017-09-04T00:23:33.251Z,0
2017-09-04T00:24:13.829Z,0
2017-09-04T00:24:54.404Z,0
2017-09-04T00:25:34.972Z,0
2017-09-04T00:26:15.545Z,0
2017-09-04T00:26:56.120Z,0
2017-09-04T00:27:36.692Z,0
2017-09-04T00:28:17.276Z,0
2017-09-04T00:28:58.439Z,0
2017-09-04T00:29:53.604Z,0
2017-09-04T00:30:34.188Z,0
2017-09-04T00:31:14.760Z,0
2017-09-04T00:31:55.350Z,0
2017-09-04T00:32:35.928Z,0
2017-09-04T00:33:16.509Z,0
2017-09-04T00:33:57.085Z,0
2017-09-04T00:34:37.667Z,0
2017-09-04T00:35:18.249Z,0
2017-09-04T00:35:58.822Z,0
2017-09-04T00:36:39.408Z,0
2017-09-04T00:37:19.980Z,0
2017-09-04T00:38:00.566Z,0
2017-09-04T00:38:41.153Z,0
2017-09-04T00:39:21.719Z,0
2017-09-04T00:40:02.299Z,0
2017-09-04T00:40:42.883Z,0
2017-09-04T00:41:23.470Z,0
2017-09-04T00:42:04.049Z,0
2017-09-04T00:42:44.638Z,0
2017-09-04T00:43:25.216Z,0
2017-09-04T00:44:05.796Z,0
2017-09-04T00:44:46.378Z,0
2017-09-04T00:45:26.949Z,0
2017-09-04T00:46:07.537Z,0
2017-09-04T00:46:48.115Z,0
2017-09-04T00:47:28.698Z,0
2017-09-04T00:48:09.275Z,0
2017-09-04T00:48:49.852Z,0
2017-09-04T00:49:30.413Z,0
2017-09-04T00:50:10.992Z,0
2017-09-04T00:50:51.575Z,0
2017-09-04T00:51:32.152Z,0
2017-09-04T00:52:27.339Z,0
2017-09-04T00:53:07.910Z,0
2017-09-04T00:53:48.484Z,0
2017-09-04T00:54:29.069Z,0
2017-09-04T00:55:09.657Z,0
2017-09-04T00:55:50.228Z,0
2017-09-04T00:56:30.807Z,0
2017-09-04T00:57:11.385Z,0
2017-09-04T00:57:51.969Z,0
2017-09-04T00:58:32.536Z,0
2017-09-04T00:59:13.119Z,0
2017-09-04T00:59:53.707Z,0
2017-09-04T01:00:34.285Z,0
2017-09-04T01:01:14.855Z,0
2017-09-04T01:01:55.431Z,0
2017-09-04T01:02:36.009Z,0
2017-09-04T01:03:16.586Z,0
2017-09-04T01:03:57.163Z,0
2017-09-04T01:04:37.742Z,0
2017-09-04T01:05:18.327Z,0
2017-09-04T01:05:58.887Z,0
2017-09-04T01:06:39.497Z,0
2017-09-04T01:07:20.042Z,0
2017-09-04T01:08:00.618Z,0
2017-09-04T01:08:41.188Z,0
2017-09-04T01:09:21.769Z,0
2017-09-04T01:10:02.350Z,0
2017-09-04T01:10:42.938Z,0
2017-09-04T01:11:23.508Z,0
2017-09-04T01:13:41.471Z,0
2017-09-04T01:14:22.048Z,0
2017-09-04T01:15:02.628Z,0
2017-09-04T01:15:43.205Z,0
2017-09-04T01:16:23.778Z,0
2017-09-04T01:17:04.363Z,0
2017-09-04T01:17:44.945Z,0
2017-09-04T01:18:25.512Z,0
2017-09-04T01:19:06.094Z,0
2017-09-04T01:19:46.674Z,0
2017-09-04T01:20:27.257Z,0
2017-09-04T01:21:07.838Z,0
2017-09-04T01:21:48.427Z,0
2017-09-04T01:22:29.002Z,0
2017-09-04T01:23:09.570Z,0
2017-09-04T01:23:50.154Z,0
2017-09-04T01:24:30.730Z,0
2017-09-04T01:25:11.304Z,0
2017-09-04T01:27:46.008Z,0
2017-09-04T01:28:26.591Z,0
2017-09-04T01:29:07.166Z,0
2017-09-04T01:29:47.740Z,0
2017-09-04T01:30:28.312Z,0
2017-09-04T01:31:08.890Z,0
2017-09-04T01:31:49.465Z,0
2017-09-04T01:32:30.031Z,0
2017-09-04T01:33:10.610Z,0
2017-09-04T01:33:51.199Z,0
2017-09-04T01:34:31.770Z,0
2017-09-04T01:35:12.347Z,0
2017-09-04T01:35:52.923Z,0
2017-09-04T01:36:33.507Z,0
2017-09-04T01:37:14.080Z,0
2017-09-04T01:37:54.648Z,0
2017-09-04T01:38:35.240Z,0
2017-09-04T01:39:15.810Z,0
2017-09-04T01:39:56.387Z,0
2017-09-04T01:40:36.969Z,0
2017-09-04T01:41:17.548Z,0
2017-09-04T01:41:58.118Z,0
2017-09-04T01:42:38.693Z,0
2017-09-04T01:43:19.275Z,0
2017-09-04T01:43:59.859Z,0
2017-09-04T01:44:40.436Z,0
2017-09-04T01:45:21.009Z,0
2017-09-04T01:46:01.588Z,0
2017-09-04T01:46:42.170Z,0
2017-09-04T01:47:22.748Z,0
2017-09-04T01:48:03.360Z,0
2017-09-04T01:48:44.007Z,0
2017-09-04T01:49:24.565Z,0
2017-09-04T01:50:05.219Z,0
2017-09-04T01:50:45.772Z,0
2017-09-04T01:51:26.362Z,0
2017-09-04T01:52:06.940Z,0
2017-09-04T01:52:47.525Z,0
2017-09-04T01:55:05.460Z,0
2017-09-04T01:55:46.030Z,0
2017-09-04T01:56:26.610Z,0
2017-09-04T01:57:07.188Z,0
2017-09-04T01:57:47.758Z,0
2017-09-04T01:58:28.337Z,0
2017-09-04T01:59:08.920Z,0
2017-09-04T01:59:49.505Z,0
2017-09-04T02:00:30.087Z,0
2017-09-04T02:01:10.665Z,0
2017-09-04T02:01:51.242Z,0
2017-09-04T02:02:31.820Z,0
2017-09-04T02:03:12.400Z,0
2017-09-04T02:03:52.979Z,0
2017-09-04T02:04:33.548Z,0
2017-09-04T02:05:14.122Z,0
2017-09-04T02:05:54.705Z,0
2017-09-04T02:06:35.265Z,0
2017-09-04T02:07:15.838Z,0
2017-09-04T02:07:56.423Z,0
2017-09-04T02:08:37.000Z,0
2017-09-04T02:09:17.575Z,0
2017-09-04T02:09:58.145Z,0
2017-09-04T02:10:38.712Z,0
2017-09-04T02:11:19.286Z,0
2017-09-04T02:11:59.872Z,0
2017-09-04T02:12:40.449Z,0
2017-09-04T02:13:21.024Z,0
2017-09-04T02:14:01.608Z,0
2017-09-04T02:14:42.194Z,0
2017-09-04T02:15:22.754Z,0
2017-09-04T02:16:03.324Z,0
2017-09-04T02:16:43.903Z,0
2017-09-04T02:17:24.479Z,0
2017-09-04T02:18:05.062Z,0
2017-09-04T02:18:45.636Z,0
2017-09-04T02:19:26.215Z,0
2017-09-04T02:20:06.789Z,0
2017-09-04T02:20:47.363Z,0
2017-09-04T02:21:27.940Z,0
2017-09-04T02:22:08.523Z,0
2017-09-04T02:22:49.100Z,0
2017-09-04T02:23:29.668Z,0
2017-09-04T02:24:10.248Z,0
2017-09-04T02:24:50.822Z,0
2017-09-04T02:25:31.393Z,0
2017-09-04T02:26:11.970Z,0
2017-09-04T02:26:52.548Z,0
2017-09-04T02:27:33.116Z,0
2017-09-04T02:28:13.700Z,0
2017-09-04T02:28:54.280Z,0
2017-09-04T02:29:34.855Z,0
2017-09-04T02:30:15.438Z,0
2017-09-04T02:30:56.015Z,0
2017-09-04T02:31:36.595Z,0
2017-09-04T02:32:17.175Z,0
2017-09-04T02:32:57.759Z,0
2017-09-04T02:33:38.333Z,0
2017-09-04T02:34:18.901Z,0
2017-09-04T02:34:59.484Z,0
2017-09-04T02:35:40.060Z,0
2017-09-04T02:36:20.644Z,0
2017-09-04T02:37:01.221Z,0
2017-09-04T02:37:41.803Z,0
2017-09-04T02:38:22.378Z,0
2017-09-04T02:39:02.944Z,0
2017-09-04T02:39:43.517Z,0
2017-09-04T02:40:24.100Z,0
2017-09-04T02:41:05.370Z,0
2017-09-04T02:41:45.949Z,0
2017-09-04T02:42:26.521Z,0
2017-09-04T02:43:07.096Z,0
2017-09-04T02:43:47.675Z,0
2017-09-04T02:44:28.254Z,0
2017-09-04T02:45:08.830Z,0
2017-09-04T02:45:49.418Z,0
2017-09-04T02:46:29.989Z,0
2017-09-04T02:47:10.584Z,0
2017-09-04T02:47:51.161Z,0
2017-09-04T02:48:31.739Z,0
2017-09-04T02:50:29.472Z,0
2017-09-04T02:51:10.044Z,0
2017-09-04T02:51:50.611Z,0
2017-09-04T02:52:31.190Z,0
2017-09-04T02:53:11.769Z,0
2017-09-04T02:53:52.344Z,0
2017-09-04T02:54:32.905Z,0
2017-09-04T02:55:13.480Z,0
2017-09-04T02:55:54.056Z,0
2017-09-04T02:56:34.623Z,0
2017-09-04T02:57:15.190Z,0
2017-09-04T02:57:55.763Z,0
2017-09-04T02:58:36.340Z,0
2017-09-04T02:59:17.035Z,0
2017-09-04T02:59:57.629Z,0
2017-09-04T03:00:38.188Z,0
2017-09-04T03:01:18.751Z,0
2017-09-04T03:01:59.315Z,0
2017-09-04T03:04:32.555Z,0
2017-09-04T03:05:27.754Z,0
2017-09-04T03:06:08.327Z,0
2017-09-04T03:06:48.927Z,0
2017-09-04T03:07:29.469Z,0
2017-09-04T03:08:10.051Z,0
2017-09-04T03:08:50.626Z,0
2017-09-04T03:09:31.202Z,0
2017-09-04T03:10:11.767Z,0
2017-09-04T03:10:52.352Z,0
2017-09-04T03:11:32.933Z,0
2017-09-04T03:12:13.516Z,0
2017-09-04T03:12:54.075Z,0
2017-09-04T03:13:34.654Z,0
2017-09-04T03:14:15.235Z,0
2017-09-04T03:14:55.805Z,0
2017-09-04T03:15:36.379Z,0
2017-09-04T03:16:17.030Z,0
2017-09-04T03:16:57.708Z,0
2017-09-04T03:17:52.889Z,0
2017-09-04T03:18:33.502Z,0
2017-09-04T03:19:14.525Z,0
2017-09-04T03:19:55.163Z,0
2017-09-04T03:20:35.956Z,0
2017-09-04T03:21:16.544Z,0
2017-09-04T03:21:57.212Z,0
2017-09-04T03:22:37.835Z,0
2017-09-04T03:23:18.432Z,0
2017-09-04T03:23:59.014Z,0
2017-09-04T03:24:39.664Z,0
2017-09-04T03:25:20.285Z,0
2017-09-04T03:26:00.870Z,0
2017-09-04T03:26:41.564Z,0
2017-09-04T03:27:22.210Z,0
2017-09-04T03:28:02.797Z,0
2017-09-04T03:28:43.427Z,0
2017-09-04T03:29:24.013Z,0
2017-09-04T03:30:04.639Z,0
2017-09-04T03:30:45.846Z,0
2017-09-04T03:31:26.002Z,0
2017-09-04T03:32:06.672Z,0
2017-09-04T03:32:47.253Z,0
2017-09-04T03:33:27.825Z,0
2017-09-04T03:34:08.413Z,0
2017-09-04T03:34:48.978Z,0
2017-09-04T03:35:29.632Z,0
2017-09-04T03:36:10.315Z,0
2017-09-04T03:36:50.902Z,0
2017-09-04T03:37:31.491Z,0
2017-09-04T03:38:12.139Z,0
2017-09-04T03:38:52.716Z,0
2017-09-04T03:39:33.281Z,0
2017-09-04T03:40:13.854Z,0
2017-09-04T03:40:54.443Z,0
2017-09-04T03:41:35.795Z,0
2017-09-04T03:42:16.367Z,0
2017-09-04T03:42:58.525Z,0
2017-09-04T03:43:39.104Z,0
2017-09-04T03:44:19.683Z,0
2017-09-04T03:45:00.272Z,0
2017-09-04T03:45:40.861Z,0
2017-09-04T03:46:21.472Z,0
2017-09-04T03:47:02.038Z,0
2017-09-04T03:47:42.621Z,0
2017-09-04T03:48:23.287Z,0
2017-09-04T03:49:03.952Z,0
2017-09-04T03:49:44.763Z,0
2017-09-04T03:50:30.461Z,0
2017-09-04T03:51:10.987Z,0
2017-09-04T03:51:51.560Z,0
2017-09-04T03:52:32.143Z,0
2017-09-04T03:53:12.713Z,0
2017-09-04T03:53:53.293Z,0
2017-09-04T03:54:33.867Z,0
2017-09-04T03:55:14.444Z,0
2017-09-04T03:55:55.020Z,0
2017-09-04T03:56:35.588Z,0
2017-09-04T03:57:16.163Z,0
2017-09-04T03:57:56.739Z,0
2017-09-04T03:58:37.307Z,0
2017-09-04T03:59:17.895Z,0
2017-09-04T03:59:58.473Z,0
2017-09-04T04:00:39.046Z,0
2017-09-04T04:01:19.627Z,0
2017-09-04T04:02:00.198Z,0
2017-09-04T04:02:40.800Z,0
2017-09-04T04:03:21.392Z,0
2017-09-04T04:04:01.964Z,0
2017-09-04T04:04:42.536Z,4
2017-09-04T04:05:23.106Z,4
2017-09-04T04:06:03.685Z,4
2017-09-04T04:08:21.638Z,4
2017-09-04T04:09:02.217Z,4
2017-09-04T04:09:42.793Z,4
2017-09-04T04:10:23.373Z,4
2017-09-04T04:11:03.945Z,8
2017-09-04T04:11:44.537Z,8
2017-09-04T04:12:25.115Z,8
2017-09-04T04:13:05.682Z,8
2017-09-04T04:13:46.252Z,12
2017-09-04T04:14:26.830Z,12
2017-09-04T04:15:07.403Z,8
2017-09-04T04:15:47.970Z,12
2017-09-04T04:16:28.534Z,16
2017-09-04T04:17:09.107Z,16
2017-09-04T04:17:49.694Z,20
2017-09-04T04:18:30.269Z,20
2017-09-04T04:29:28.896Z,112
2017-09-04T04:30:09.475Z,124
2017-09-04T04:30:51.934Z,136
2017-09-04T04:31:32.519Z,148
2017-09-04T04:32:13.085Z,160
2017-09-04T04:32:53.639Z,172
2017-09-04T04:33:34.206Z,188
2017-09-04T04:34:14.769Z,204
2017-09-04T04:34:55.339Z,220
2017-09-04T04:35:35.897Z,232
2017-09-04T04:37:33.590Z,288
2017-09-04T04:38:14.154Z,312
2017-09-04T04:38:54.718Z,332
2017-09-04T04:39:35.288Z,356
2017-09-04T04:40:15.850Z,384
2017-09-04T04:40:56.422Z,412
2017-09-04T04:41:37.004Z,436
2017-09-04T04:42:17.562Z,468
2017-09-04T04:42:58.118Z,496
2017-09-04T04:43:38.681Z,528
2017-09-04T04:44:19.231Z,560
2017-09-04T04:44:59.793Z,596
2017-09-04T04:45:40.364Z,628
2017-09-04T04:46:20.943Z,660
2017-09-04T04:47:01.515Z,696
2017-09-04T04:47:42.089Z,736
2017-09-04T04:48:22.650Z,772
2017-09-04T04:49:03.225Z,812
2017-09-04T04:49:43.790Z,848
2017-09-04T04:50:24.356Z,888
2017-09-04T04:51:06.759Z,932
2017-09-04T04:51:47.319Z,976
2017-09-04T04:52:27.859Z,1016
2017-09-04T04:53:08.416Z,1056
2017-09-04T04:53:48.987Z,1104
2017-09-04T04:54:29.554Z,1144
2017-09-04T04:55:10.125Z,1192
2017-09-04T04:55:50.712Z,1236
2017-09-04T04:56:31.281Z,1280
2017-09-04T04:57:11.832Z,1328
2017-09-04T04:57:52.401Z,1372
2017-09-04T04:58:32.969Z,1420
2017-09-04T04:59:13.529Z,1460
2017-09-04T04:59:54.096Z,1504
2017-09-04T05:00:34.669Z,1552
2017-09-04T05:01:15.236Z,1596
2017-09-04T05:01:55.804Z,1644
2017-09-04T05:02:36.378Z,1688
2017-09-04T05:03:16.929Z,1736
2017-09-04T05:03:57.478Z,1784
2017-09-04T05:04:38.040Z,1832
2017-09-04T05:05:18.605Z,1884
2017-09-04T05:05:59.151Z,1932
2017-09-04T05:06:39.732Z,1988
2017-09-04T05:07:20.302Z,2040
2017-09-04T05:08:00.845Z,2088
2017-09-04T05:08:41.423Z,2140
2017-09-04T05:09:22.020Z,2192
2017-09-04T05:10:02.525Z,2248
2017-09-04T05:10:43.107Z,2300
2017-09-04T05:11:23.635Z,2356
2017-09-04T05:12:04.198Z,2416
2017-09-04T05:12:44.747Z,2460
2017-09-04T05:13:25.328Z,2516
2017-09-04T05:14:05.889Z,2572
2017-09-04T05:14:46.463Z,2624
2017-09-04T05:15:27.032Z,2692
2017-09-04T05:16:07.579Z,2748
2017-09-04T05:18:35.659Z,2976
2017-09-04T05:19:16.215Z,3032
2017-09-04T05:19:56.781Z,3112
2017-09-04T05:20:37.344Z,3284
2017-09-04T05:21:17.924Z,3360
2017-09-04T05:21:58.492Z,3420
2017-09-04T05:22:39.062Z,3536
2017-09-04T05:23:19.643Z,3572
2017-09-04T05:24:00.214Z,3628
2017-09-04T05:24:40.791Z,3616
2017-09-04T05:25:21.358Z,3600
2017-09-04T05:26:01.945Z,3632
2017-09-04T05:26:42.512Z,3688
2017-09-04T05:27:23.088Z,3744
2017-09-04T05:28:03.660Z,3788
2017-09-04T05:28:44.239Z,3844
2017-09-04T05:29:24.812Z,3940
2017-09-04T05:30:05.385Z,3968
2017-09-04T05:30:45.965Z,4004
2017-09-04T05:31:26.536Z,4072
2017-09-04T05:32:07.105Z,4116
2017-09-04T05:32:47.669Z,4152
2017-09-04T05:33:28.241Z,4152
2017-09-04T05:34:08.817Z,4184
2017-09-04T05:34:49.374Z,4232
2017-09-04T05:35:29.960Z,4288
2017-09-04T05:36:10.534Z,4336
2017-09-04T05:36:51.114Z,4384
2017-09-04T05:37:31.693Z,4452
2017-09-04T05:38:12.271Z,4512
2017-09-04T05:38:52.838Z,4584
2017-09-04T05:39:33.413Z,4652
2017-09-04T05:40:13.983Z,4708
2017-09-04T05:40:54.561Z,4764
2017-09-04T05:41:35.134Z,4812
2017-09-04T05:42:15.712Z,4868
2017-09-04T05:42:56.293Z,4928
2017-09-04T05:43:36.877Z,4988
2017-09-04T05:44:17.457Z,5060
2017-09-04T05:44:58.039Z,5132
2017-09-04T05:45:38.608Z,5224
2017-09-04T05:46:19.188Z,5356
2017-09-04T05:46:59.759Z,5612
2017-09-04T05:47:40.337Z,6304
2017-09-04T05:48:20.906Z,7048
2017-09-04T05:49:01.476Z,6448
2017-09-04T05:49:42.052Z,6292
2017-09-04T05:50:22.639Z,5872
2017-09-04T05:51:03.214Z,5776
2017-09-04T05:51:43.790Z,5772
2017-09-04T05:52:24.355Z,5808
2017-09-04T05:53:04.936Z,5888
2017-09-04T05:53:45.519Z,5952
2017-09-04T05:54:26.088Z,6028
2017-09-04T05:55:06.661Z,6124
2017-09-04T05:55:47.244Z,6248
2017-09-04T05:56:27.820Z,6320
2017-09-04T05:57:08.403Z,6448
2017-09-04T05:57:48.975Z,6520
2017-09-04T05:58:29.550Z,6772
2017-09-04T05:59:10.131Z,6976
2017-09-04T05:59:50.711Z,6940
2017-09-04T06:00:31.292Z,7464
2017-09-04T06:01:11.866Z,7452
2017-09-04T06:01:52.439Z,7488
2017-09-04T06:02:32.989Z,7760
2017-09-04T06:03:13.556Z,8052
2017-09-04T06:03:54.135Z,8068
2017-09-04T06:04:34.712Z,8640
2017-09-04T06:06:52.652Z,9172
2017-09-04T06:07:33.224Z,9252
2017-09-04T06:08:13.792Z,9488
2017-09-04T06:08:54.370Z,9384
2017-09-04T06:09:34.949Z,9524
2017-09-04T06:10:15.531Z,9628
2017-09-04T06:10:56.108Z,9804
2017-09-04T06:11:36.688Z,9948
2017-09-04T06:12:17.264Z,10168
2017-09-04T06:12:57.844Z,10432
2017-09-04T06:13:38.423Z,10724
2017-09-04T06:14:18.990Z,10988
2017-09-04T06:14:59.569Z,11232
2017-09-04T06:15:40.135Z,11348
2017-09-04T06:16:20.724Z,11464
2017-09-04T06:17:01.304Z,11608
2017-09-04T06:17:41.885Z,12872
2017-09-04T06:18:22.464Z,17056
2017-09-04T06:19:03.042Z,23648
2017-09-04T06:19:43.617Z,27040
2017-09-04T06:20:38.797Z,28896
2017-09-04T06:21:19.372Z,29056
2017-09-04T06:21:59.953Z,28928
2017-09-04T06:22:40.537Z,29504
2017-09-04T06:23:21.122Z,29184
2017-09-04T06:24:01.700Z,29824
2017-09-04T06:24:42.273Z,29920
2017-09-04T06:25:22.842Z,29856
2017-09-04T06:26:03.430Z,30080
2017-09-04T06:26:44.033Z,30272
2017-09-04T06:27:25.314Z,31712
2017-09-04T06:28:05.906Z,35200
2017-09-04T06:28:46.483Z,35936
2017-09-04T06:29:27.056Z,35264
2017-09-04T06:30:07.642Z,34848
2017-09-04T06:30:48.233Z,34272
2017-09-04T06:31:28.800Z,33920
2017-09-04T06:32:09.382Z,33664
2017-09-04T06:32:49.940Z,33856
2017-09-04T06:33:30.515Z,34976
2017-09-04T06:34:11.105Z,37056
2017-09-04T06:34:51.676Z,37760
2017-09-04T06:35:32.257Z,38304
2017-09-04T06:36:12.843Z,37696
2017-09-04T06:36:53.424Z,36736
2017-09-04T06:37:34.019Z,35936
2017-09-04T06:38:14.597Z,36064
2017-09-04T06:38:55.181Z,37120
2017-09-04T06:39:35.744Z,38848
2017-09-04T06:40:16.323Z,40384
2017-09-04T06:40:56.907Z,41056
2017-09-04T06:41:37.487Z,40320
2017-09-04T06:42:18.079Z,39456
2017-09-04T06:42:58.652Z,38624
2017-09-04T06:43:39.238Z,39072
2017-09-04T06:44:19.837Z,40096
2017-09-04T06:45:00.416Z,41952
2017-09-04T06:45:41.005Z,43552
2017-09-04T06:46:21.617Z,44992
2017-09-04T06:47:02.192Z,45600
2017-09-04T06:47:42.781Z,46016
2017-09-04T06:48:23.372Z,45664
2017-09-04T06:49:03.961Z,44736
2017-09-04T06:49:44.552Z,44000
2017-09-04T06:50:25.142Z,43680
2017-09-04T06:51:05.728Z,44384
2017-09-04T06:51:46.310Z,45568
2017-09-04T06:52:26.904Z,44736
2017-09-04T06:53:07.489Z,47360
2017-09-04T06:53:48.078Z,45824
2017-09-04T06:54:28.661Z,47840
2017-09-04T06:55:09.245Z,49120
2017-09-04T06:55:49.844Z,49568
2017-09-04T06:56:30.419Z,48736
2017-09-04T06:57:11.013Z,48288
2017-09-04T06:57:51.592Z,48960
2017-09-04T06:58:32.181Z,49856
2017-09-04T06:59:12.765Z,50272
2017-09-04T06:59:53.358Z,50528
2017-09-04T07:00:33.952Z,50336
2017-09-04T07:01:14.540Z,50432
2017-09-04T07:01:55.112Z,50944
2017-09-04T07:02:35.699Z,51200
2017-09-04T07:03:16.288Z,51808
2017-09-04T07:03:56.869Z,51968
2017-09-04T07:04:37.445Z,52832
2017-09-04T07:05:18.033Z,52032
2017-09-04T07:05:58.626Z,53792
2017-09-04T07:06:39.213Z,48928
2017-09-04T07:07:19.804Z,52832
2017-09-04T07:08:00.393Z,54528
2017-09-04T07:08:40.985Z,54368
2017-09-04T07:09:21.579Z,53376
2017-09-04T07:10:02.165Z,54848
2017-09-04T07:10:42.806Z,54592
2017-09-04T07:11:23.400Z,56320
2017-09-04T07:12:03.990Z,55904
2017-09-04T07:12:44.578Z,56672
2017-09-04T07:13:25.170Z,56224
2017-09-04T07:14:05.767Z,54848
2017-09-04T07:14:46.358Z,52800
2017-09-04T07:15:26.941Z,43040
2017-09-04T07:16:07.531Z,50912
2017-09-04T07:16:48.124Z,56224
2017-09-04T07:17:28.717Z,53536
2017-09-04T07:18:09.306Z,51360
2017-09-04T07:18:49.905Z,40576
2017-09-04T07:19:30.485Z,48640
2017-09-04T07:20:11.081Z,38272
2017-09-04T07:20:51.681Z,35808
2017-09-04T07:21:32.264Z,40352
2017-09-04T07:22:12.868Z,41568
2017-09-04T07:23:08.073Z,50272
2017-09-04T07:23:48.667Z,53120
2017-09-04T07:24:29.266Z,54656
2017-09-04T07:25:09.823Z,56608
2017-09-04T07:25:50.428Z,60608
2017-09-04T07:26:31.015Z,55648
2017-09-04T07:27:11.595Z,50848
2017-09-04T07:27:52.199Z,50176
2017-09-04T07:28:32.778Z,57856
2017-09-04T07:29:13.361Z,57344
2017-09-04T07:29:53.964Z,61792
2017-09-04T07:30:34.555Z,58752
2017-09-04T07:31:15.148Z,59776
2017-09-04T07:31:55.739Z,58496
2017-09-04T07:32:36.317Z,61824
2017-09-04T07:33:16.921Z,63488
2017-09-04T07:33:57.510Z,64288
2017-09-04T07:34:38.108Z,62976
2017-09-04T07:35:18.699Z,59168
2017-09-04T07:35:59.286Z,54688
2017-09-04T07:36:39.881Z,52288
2017-09-04T07:37:20.479Z,57312
2017-09-04T07:38:01.062Z,58048
2017-09-04T07:38:41.650Z,54816
2017-09-04T07:39:22.248Z,47744
2017-09-04T07:40:02.849Z,58560
2017-09-04T07:40:43.437Z,63776
2017-09-04T07:41:24.027Z,67584
2017-09-04T07:42:04.618Z,61728
2017-09-04T07:42:45.204Z,59488
2017-09-04T07:43:25.798Z,51200
2017-09-04T07:45:43.815Z,46752
2017-09-04T07:46:24.406Z,45056
2017-09-04T07:47:04.984Z,47616
2017-09-04T07:47:45.622Z,50464
2017-09-04T07:48:26.221Z,49312
2017-09-04T07:49:06.818Z,63552
2017-09-04T07:49:47.405Z,62048
2017-09-04T07:50:28.029Z,62048
2017-09-04T07:51:08.590Z,59360
2017-09-04T07:51:49.188Z,56928
2017-09-04T07:52:29.775Z,55744
2017-09-04T07:53:10.360Z,50784
2017-09-04T07:53:50.958Z,54944
2017-09-04T07:54:31.543Z,57248
2017-09-04T07:55:12.135Z,50464
2017-09-04T07:55:52.717Z,52064
2017-09-04T07:56:33.310Z,53888
2017-09-04T07:57:13.900Z,48512
2017-09-04T07:57:54.486Z,52256
2017-09-04T07:58:35.070Z,54720
2017-09-04T07:59:15.657Z,58304
2017-09-04T07:59:56.242Z,53280
2017-09-04T08:00:36.828Z,55232
2017-09-04T08:01:17.420Z,60736
2017-09-04T08:01:58.021Z,57248
2017-09-04T08:02:38.605Z,52224
2017-09-04T08:03:19.200Z,49632
2017-09-04T08:03:59.790Z,44640
2017-09-04T08:04:40.382Z,43424
2017-09-04T08:05:20.969Z,49600
2017-09-04T08:06:01.559Z,58848
2017-09-04T08:06:42.153Z,49024
2017-09-04T08:07:22.731Z,54784
2017-09-04T08:08:03.326Z,59968
2017-09-04T08:08:43.918Z,43424
2017-09-04T08:09:24.504Z,41696
2017-09-04T08:10:05.096Z,30688
2017-09-04T08:10:45.687Z,53568
2017-09-04T08:11:26.264Z,56032
2017-09-04T08:12:06.855Z,56992
2017-09-04T08:12:47.458Z,62528
2017-09-04T08:13:28.059Z,43296
2017-09-04T08:14:08.642Z,65184
2017-09-04T08:14:49.240Z,71040
2017-09-04T08:15:29.825Z,54912
2017-09-04T08:16:10.416Z,50784
2017-09-04T08:16:51.011Z,69888
2017-09-04T08:17:31.600Z,69888
2017-09-04T08:18:12.193Z,63424
2017-09-04T08:18:52.789Z,69824
2017-09-04T08:19:33.372Z,74816
2017-09-04T08:20:13.961Z,58976
2017-09-04T08:20:54.583Z,51616
2017-09-04T08:21:35.163Z,51008
2017-09-04T08:22:15.743Z,61760
2017-09-04T08:22:56.329Z,61632
2017-09-04T08:23:36.919Z,52192
2017-09-04T08:24:17.512Z,56672
2017-09-04T08:24:58.100Z,54240
2017-09-04T08:25:38.694Z,60864
2017-09-04T08:26:19.288Z,51840
2017-09-04T08:26:59.886Z,43648
2017-09-04T08:27:40.484Z,43936
2017-09-04T08:28:21.086Z,53504
2017-09-04T08:29:01.679Z,38560
2017-09-04T08:29:42.273Z,40832
2017-09-04T08:30:22.871Z,72384
2017-09-04T08:31:03.496Z,72416
2017-09-04T08:31:44.062Z,69216
2017-09-04T08:32:24.648Z,47904
2017-09-04T08:33:05.239Z,38624
2017-09-04T08:33:45.824Z,42240
2017-09-04T08:36:03.808Z,49152
2017-09-04T08:36:44.396Z,69120
2017-09-04T08:37:24.985Z,75104
2017-09-04T08:38:05.565Z,68352
2017-09-04T08:38:46.164Z,59872
2017-09-04T08:39:26.745Z,50560
2017-09-04T08:40:07.325Z,68160
2017-09-04T08:40:47.917Z,71040
2017-09-04T08:41:28.512Z,73376
2017-09-04T08:42:09.098Z,56160
2017-09-04T08:42:49.687Z,66400
2017-09-04T08:43:30.283Z,65696
2017-09-04T08:44:10.878Z,66208
2017-09-04T08:44:51.473Z,62528
2017-09-04T08:45:32.058Z,67680
2017-09-04T08:46:12.651Z,66464
2017-09-04T08:46:53.242Z,76256
2017-09-04T08:47:33.828Z,79424
2017-09-04T08:48:14.404Z,81984
2017-09-04T08:48:55.006Z,82080
2017-09-04T08:49:35.600Z,51296
2017-09-04T08:50:16.196Z,75104
2017-09-04T08:50:56.797Z,64512
2017-09-04T08:51:37.386Z,53632
2017-09-04T08:52:17.979Z,63232
2017-09-04T08:52:58.589Z,68352
2017-09-04T08:53:39.183Z,68384
2017-09-04T08:54:19.778Z,64576
2017-09-04T08:55:00.379Z,43840
2017-09-04T08:55:40.975Z,42944
2017-09-04T08:56:21.573Z,30784
2017-09-04T08:57:02.159Z,47456
2017-09-04T08:57:42.793Z,61312
2017-09-04T08:58:23.383Z,35136
2017-09-04T08:59:03.976Z,59104
2017-09-04T08:59:44.557Z,67520
2017-09-04T09:00:25.140Z,58400
2017-09-04T09:01:05.740Z,61856
2017-09-04T09:01:46.324Z,59776
2017-09-04T09:02:26.911Z,69728
2017-09-04T09:03:07.497Z,67168
2017-09-04T09:03:48.087Z,43296
2017-09-04T09:04:28.680Z,64800
2017-09-04T09:05:09.276Z,67712
2017-09-04T09:05:49.869Z,55264
2017-09-04T09:06:30.454Z,45536
2017-09-04T09:07:11.041Z,68032
2017-09-04T09:07:51.637Z,76736
2017-09-04T09:08:32.228Z,77664
2017-09-04T09:09:12.833Z,77440
2017-09-04T09:09:53.414Z,79904
2017-09-04T09:10:34.006Z,81696
2017-09-04T09:11:14.594Z,83648
2017-09-04T09:11:55.182Z,82752
2017-09-04T09:12:35.763Z,84576
2017-09-04T09:13:16.351Z,70784
2017-09-04T09:13:56.937Z,62912
2017-09-04T09:14:37.523Z,61216
2017-09-04T09:15:18.119Z,65824
2017-09-04T09:15:58.713Z,71840
2017-09-04T09:16:39.301Z,75328
2017-09-04T09:18:53.194Z,65312
2017-09-04T09:19:33.786Z,60448
2017-09-04T09:20:14.373Z,71552
2017-09-04T09:20:54.956Z,72288
2017-09-04T09:21:35.531Z,68576
2017-09-04T09:22:16.124Z,74912
2017-09-04T09:22:56.717Z,71552
2017-09-04T09:23:51.831Z,66816
2017-09-04T09:24:32.431Z,60736
2017-09-04T09:25:13.014Z,73696
2017-09-04T09:25:53.618Z,69088
2017-09-04T09:26:34.205Z,48928
2017-09-04T09:27:14.808Z,43072
2017-09-04T09:27:55.402Z,55584
2017-09-04T09:28:35.995Z,59072
2017-09-04T09:29:16.586Z,61472
2017-09-04T09:29:59.177Z,58944
2017-09-04T09:30:39.773Z,68288
2017-09-04T09:31:20.366Z,60864
2017-09-04T09:32:00.944Z,56384
2017-09-04T09:32:41.537Z,48896
2017-09-04T09:33:22.124Z,51424
2017-09-04T09:34:02.713Z,56256
2017-09-04T09:34:43.299Z,64832
2017-09-04T09:35:23.899Z,75072
2017-09-04T09:36:04.499Z,77664
2017-09-04T09:36:45.096Z,64576
2017-09-04T09:37:25.694Z,68192
2017-09-04T09:38:06.278Z,75104
2017-09-04T09:38:46.869Z,71936
2017-09-04T09:39:27.463Z,56640
2017-09-04T09:40:08.062Z,57312
2017-09-04T09:40:48.659Z,72000
2017-09-04T09:41:29.252Z,67104
2017-09-04T09:42:09.842Z,51328
2017-09-04T09:42:50.425Z,73088
2017-09-04T09:43:31.028Z,70016
2017-09-04T09:44:11.614Z,63232
2017-09-04T09:44:52.193Z,57376
2017-09-04T09:45:32.780Z,64800
2017-09-04T09:46:13.373Z,58144
2017-09-04T09:46:53.958Z,58816
2017-09-04T09:47:34.550Z,60992
2017-09-04T09:48:15.140Z,53376
2017-09-04T09:48:55.738Z,60480
2017-09-04T09:49:36.337Z,53888
2017-09-04T09:50:16.927Z,69792